Time;durP1;ratioP1;P1;durP2;ratioP2;P2;SDS_P1;SDS_P2;PMS_P1;PMS_P2;Temp;Humidity;BMP_temperature;BMP_pressure;BME280_temperature;BME280_humidity;BME280_pressure;Samples;Min_cycle;Max_cycle;Signal;HPM_P1;HPM_P2
2023/01/07 00:00:49;;;;;;;1999.90;999.90;;;;;;;3.33;100.00;98619.59;4951972;29;20046;-77
2023/01/07 00:03:17;;;;;;;1999.90;999.90;;;;;;;3.29;100.00;98616.50;4951190;29;20071;-76
2023/01/07 00:05:43;;;;;;;1999.90;999.90;;;;;;;3.29;100.00;98613.00;4951074;29;20016;-76
2023/01/07 00:08:09;;;;;;;1999.90;999.90;;;;;;;3.30;100.00;98622.75;4934975;29;20030;-76
2023/01/07 00:10:35;;;;;;;1999.90;999.90;;;;;;;3.26;100.00;98627.00;4952203;29;20019;-78
2023/01/07 00:13:01;;;;;;;1999.90;999.90;;;;;;;3.19;100.00;98627.09;4953029;29;20027;-77
2023/01/07 00:15:26;;;;;;;1999.90;999.90;;;;;;;3.16;100.00;98624.84;4952858;29;20457;-78
2023/01/07 00:17:52;;;;;;;1999.90;999.90;;;;;;;3.26;100.00;98629.69;4958998;28;20106;-77
2023/01/07 00:20:17;;;;;;;1999.90;999.90;;;;;;;3.21;100.00;98631.22;4943335;28;20031;-77
2023/01/07 00:22:42;;;;;;;1999.90;999.90;;;;;;;3.21;100.00;98627.69;4962862;28;20031;-77
2023/01/07 00:25:08;;;;;;;1999.90;999.90;;;;;;;3.20;100.00;98624.16;4959771;28;20073;-77
2023/01/07 00:27:33;;;;;;;1999.90;999.90;;;;;;;3.19;100.00;98627.09;4962749;28;20063;-76
2023/01/07 00:29:59;;;;;;;1999.90;999.90;;;;;;;3.18;100.00;98626.28;4961832;28;20033;-76
2023/01/07 00:32:52;;;;;;;1999.90;999.90;;;;;;;3.15;100.00;98628.59;4962524;28;20057;-76
2023/01/07 00:35:21;;;;;;;1999.90;999.90;;;;;;;3.19;100.00;98619.81;4957844;28;20697;-75
2023/01/07 00:37:49;;;;;;;1999.90;999.90;;;;;;;3.27;100.00;98620.50;4958111;28;20038;-76
2023/01/07 00:40:15;;;;;;;1999.90;999.90;;;;;;;3.28;100.00;98614.06;4958752;29;20051;-76
2023/01/07 00:45:24;;;;;;;1999.90;999.90;;;;;;;3.37;100.00;98639.69;4955787;29;20034;-76
2023/01/07 00:47:53;;;;;;;1999.90;999.90;;;;;;;3.35;100.00;98631.00;4966847;28;20034;-77
2023/01/07 00:50:24;;;;;;;1999.90;999.90;;;;;;;3.37;100.00;98627.00;4974630;28;20478;-75
2023/01/07 00:52:49;;;;;;;1999.90;999.90;;;;;;;3.41;100.00;98638.19;4974777;28;20034;-77
2023/01/07 00:55:15;;;;;;;1999.90;999.90;;;;;;;3.40;100.00;98633.81;4974651;28;20031;-75
2023/01/07 00:57:41;;;;;;;1999.90;999.90;;;;;;;3.45;100.00;98632.06;4957477;28;20034;-77
2023/01/07 01:00:09;;;;;;;1999.90;999.90;;;;;;;3.44;100.00;98633.13;4957197;28;20039;-76
2023/01/07 01:02:34;;;;;;;1999.90;999.90;;;;;;;3.37;100.00;98635.13;4936962;28;20125;-78
2023/01/07 01:05:00;;;;;;;1999.90;999.90;;;;;;;3.43;100.00;98636.06;4936141;29;20059;-77
2023/01/07 01:07:25;;;;;;;1999.90;999.90;;;;;;;3.45;100.00;98639.34;4935949;29;20031;-75
2023/01/07 01:09:50;;;;;;;1999.90;999.90;;;;;;;3.41;100.00;98632.78;4936486;29;20460;-75
2023/01/07 01:12:16;;;;;;;1999.90;999.90;;;;;;;3.42;100.00;98632.53;4937205;29;20537;-76
2023/01/07 01:14:41;;;;;;;1999.90;999.90;;;;;;;3.53;100.00;98633.63;4936514;29;20032;-75
2023/01/07 01:17:06;;;;;;;1999.90;999.90;;;;;;;3.45;100.00;98633.94;4936143;29;20036;-77
2023/01/07 01:19:32;;;;;;;1999.90;999.90;;;;;;;3.40;100.00;98636.53;4936081;29;20122;-76
2023/01/07 01:21:57;;;;;;;1999.90;999.90;;;;;;;3.40;100.00;98639.22;4935954;29;20119;-76
2023/01/07 01:24:22;;;;;;;1999.90;999.90;;;;;;;3.37;100.00;98640.53;4935876;29;20020;-77
2023/01/07 01:26:48;;;;;;;1999.90;999.90;;;;;;;3.40;100.00;98640.06;4935857;29;20016;-75
2023/01/07 01:29:13;;;;;;;1999.90;999.90;;;;;;;3.43;100.00;98646.88;4935639;29;20063;-76
2023/01/07 01:31:38;;;;;;;1999.90;999.90;;;;;;;3.49;100.00;98654.06;4935675;29;20397;-76
2023/01/07 01:34:04;;;;;;;1999.90;999.90;;;;;;;3.52;100.00;98645.47;4935738;29;20031;-77
2023/01/07 01:36:29;;;;;;;1999.90;999.90;;;;;;;3.56;100.00;98639.38;4935422;29;20442;-78
2023/01/07 01:38:56;;;;;;;1999.90;999.90;;;;;;;3.62;100.00;98637.63;4935635;29;20522;-74
2023/01/07 01:41:22;;;;;;;1999.90;999.90;;;;;;;3.56;100.00;98633.97;4935687;29;20038;-76
2023/01/07 01:43:48;;;;;;;1999.90;999.90;;;;;;;3.68;100.00;98639.38;4935412;29;20106;-75
2023/01/07 01:46:31;;;;;;;1999.90;999.90;;;;;;;3.68;100.00;98637.50;4935427;29;20457;-76
2023/01/07 01:49:21;;;;;;;1999.90;999.90;;;;;;;3.77;100.00;98640.69;4934416;29;20034;-76
2023/01/07 01:51:54;;;;;;;1999.90;999.90;;;;;;;3.75;100.00;98640.09;4935385;29;20059;-76
2023/01/07 01:54:20;;;;;;;1999.90;999.90;;;;;;;3.73;100.00;98634.09;4935857;29;20043;-75
2023/01/07 01:56:51;;;;;;;1999.90;999.90;;;;;;;3.77;100.00;98637.97;4937102;29;20083;-77
2023/01/07 01:59:21;;;;;;;1999.90;999.90;;;;;;;3.73;100.00;98634.09;4938222;29;20035;-78
2023/01/07 02:01:47;;;;;;;1999.90;999.90;;;;;;;3.71;100.00;98619.97;4937887;29;20027;-76
2023/01/07 02:04:18;;;;;;;1999.90;999.90;;;;;;;3.87;100.00;98624.69;4936700;29;20035;-75
2023/01/07 02:06:55;;;;;;;1999.90;999.90;;;;;;;3.89;100.00;98635.25;4936352;29;20027;-75
2023/01/07 02:09:21;;;;;;;1999.90;999.90;;;;;;;3.88;100.00;98625.53;4935854;29;20103;-76
2023/01/07 02:12:03;;;;;;;1999.90;999.90;;;;;;;3.93;100.00;98626.44;4935112;29;20452;-77
2023/01/07 02:15:06;;;;;;;1999.90;999.90;;;;;;;3.88;100.00;98634.47;4934910;29;20027;-77
2023/01/07 02:17:50;;;;;;;1999.90;999.90;;;;;;;3.89;100.00;98637.97;4934877;29;20039;-79
2023/01/07 02:20:29;;;;;;;1999.90;999.90;;;;;;;3.87;100.00;98629.28;4934859;29;20039;-75
2023/01/07 02:23:28;;;;;;;1999.90;999.90;;;;;;;3.90;100.00;98618.81;4934759;29;20050;-75
2023/01/07 02:26:22;;;;;;;1999.90;999.90;;;;;;;3.92;100.00;98610.44;4935085;29;20031;-75
2023/01/07 02:29:11;;;;;;;1999.90;999.90;;;;;;;4.04;100.00;98619.41;4939104;29;20492;-78
2023/01/07 02:32:14;;;;;;;1999.90;999.90;;;;;;;4.00;100.00;98618.22;4936280;29;20058;-76
2023/01/07 02:35:04;;;;;;;1999.90;999.90;;;;;;;3.97;100.00;98616.81;4934659;29;20105;-76
2023/01/07 02:37:54;;;;;;;1999.90;999.90;;;;;;;4.04;100.00;98614.00;4933906;29;20081;-75
2023/01/07 02:40:25;;;;;;;1999.90;999.90;;;;;;;4.08;100.00;98615.97;4934921;29;20036;-78
2023/01/07 02:43:36;;;;;;;1999.90;999.90;;;;;;;4.09;100.00;98601.38;4934254;29;20059;-77
2023/01/07 02:46:11;;;;;;;1999.90;999.90;;;;;;;4.22;100.00;98611.97;4916535;29;20408;-77
2023/01/07 02:48:38;;;;;;;1999.90;999.90;;;;;;;4.26;100.00;98615.00;4920274;29;20039;-77
2023/01/07 02:51:03;;;;;;;1999.90;999.90;;;;;;;4.20;100.00;98613.22;4949775;29;20489;-79
2023/01/07 02:53:30;;;;;;;1999.90;999.90;;;;;;;4.17;100.00;98614.53;4935974;29;20032;-79
2023/01/07 02:55:56;;;;;;;1999.90;999.90;;;;;;;4.14;100.00;98603.34;4953373;29;20038;-79
2023/01/07 02:58:42;;;;;;;1999.90;999.90;;;;;;;4.14;100.00;98614.19;4953177;29;20031;-80
2023/01/07 03:01:16;;;;;;;1999.90;999.90;;;;;;;4.11;100.00;98612.78;4953254;28;20039;-83
2023/01/07 03:04:10;;;;;;;1999.90;999.90;;;;;;;4.15;100.00;98599.59;4954359;29;20027;-79
2023/01/07 03:07:01;;;;;;;1999.90;999.90;;;;;;;4.18;100.00;98610.78;4943352;29;20079;-80
2023/01/07 03:09:40;;;;;;;1999.90;999.90;;;;;;;4.27;100.00;98606.63;4934930;29;20032;-79
2023/01/07 03:12:11;;;;;;;1999.90;999.90;;;;;;;4.26;100.00;98596.84;4934624;29;20495;-79
2023/01/07 03:14:42;;;;;;;1999.90;999.90;;;;;;;4.30;100.00;98591.78;4934186;29;20016;-81
2023/01/07 03:17:15;;;;;;;1999.90;999.90;;;;;;;4.31;100.00;98583.44;4934485;29;20404;-77
2023/01/07 03:19:43;;;;;;;1999.90;999.90;;;;;;;4.38;100.00;98579.78;4934548;29;20032;-77
2023/01/07 03:22:09;;;;;;;1999.90;999.90;;;;;;;4.39;100.00;98589.53;4933979;29;20035;-78
2023/01/07 03:24:35;;;;;;;1999.90;999.90;;;;;;;4.39;100.00;98590.34;4934058;29;20484;-77
2023/01/07 03:27:03;;;;;;;1999.90;999.90;;;;;;;4.49;100.00;98592.44;4934335;29;20441;-77
2023/01/07 03:29:34;;;;;;;1999.90;999.90;;;;;;;4.58;100.00;98593.72;4934267;29;20031;-84
2023/01/07 03:32:15;;;;;;;1999.90;999.90;;;;;;;4.60;100.00;98578.06;4916517;29;20016;-75
2023/01/07 03:34:42;;;;;;;1999.90;999.90;;;;;;;4.61;100.00;98594.06;4933558;29;20114;-78
2023/01/07 03:37:18;;;;;;;1999.90;999.90;;;;;;;4.64;100.00;98581.91;4933495;29;20492;-78
2023/01/07 03:39:46;;;;;;;1999.90;999.90;;;;;;;4.68;100.00;98589.31;4933741;29;20493;-76
2023/01/07 03:44:57;;;;;;;1999.90;999.90;;;;;;;4.63;100.00;98588.41;4952854;29;20037;-79
2023/01/07 03:47:24;;;;;;;1999.90;999.90;;;;;;;4.54;100.00;98592.56;4952316;29;20043;-80
2023/01/07 03:49:49;;;;;;;1999.90;999.90;;;;;;;4.58;100.00;98594.53;4952716;29;20400;-76
2023/01/07 03:52:14;;;;;;;1999.90;999.90;;;;;;;4.60;100.00;98589.72;4952645;29;20043;-78
2023/01/07 03:54:39;;;;;;;1999.90;999.90;;;;;;;4.69;100.00;98582.84;4952425;29;20031;-76
2023/01/07 03:57:05;;;;;;;1999.90;999.90;;;;;;;4.66;100.00;98594.16;4953051;29;20023;-76
2023/01/07 03:59:30;;;;;;;1999.90;999.90;;;;;;;4.66;100.00;98587.91;4952831;29;20058;-78
2023/01/07 04:01:55;;;;;;;1999.90;999.90;;;;;;;4.63;100.00;98586.53;4952585;29;20034;-77
2023/01/07 04:04:21;;;;;;;1999.90;999.90;;;;;;;4.63;100.00;98585.69;4952831;29;20034;-77
2023/01/07 04:06:47;;;;;;;1999.90;999.90;;;;;;;4.62;100.00;98582.16;4954354;29;20035;-77
2023/01/07 04:09:20;;;;;;;1999.90;999.90;;;;;;;4.63;100.00;98585.69;4957548;29;20081;-78
2023/01/07 04:11:46;;;;;;;1999.90;999.90;;;;;;;4.63;100.00;98600.06;4954863;28;20034;-76
2023/01/07 04:14:11;;;;;;;1999.90;999.90;;;;;;;4.63;100.00;98591.13;4956761;29;20027;-77
2023/01/07 04:16:37;;;;;;;1999.90;999.90;;;;;;;4.61;100.00;98585.94;4957830;29;20435;-77
2023/01/07 04:19:02;;;;;;;1999.90;999.90;;;;;;;4.60;100.00;98591.59;4943123;29;20039;-78
2023/01/07 04:21:27;;;;;;;1999.90;999.90;;;;;;;4.63;100.00;98591.13;4956253;29;20024;-77
2023/01/07 04:23:53;;;;;;;1999.90;999.90;;;;;;;4.63;100.00;98583.00;4955837;29;20034;-76
2023/01/07 04:26:18;;;;;;;1999.90;999.90;;;;;;;4.67;100.00;98579.53;4955852;29;20023;-78
2023/01/07 04:28:43;;;;;;;1999.90;999.90;;;;;;;4.66;100.00;98579.78;4955229;29;20445;-76
2023/01/07 04:31:09;;;;;;;1999.90;999.90;;;;;;;4.67;100.00;98578.72;4955828;29;20113;-77
2023/01/07 04:33:34;;;;;;;1999.90;999.90;;;;;;;4.72;100.00;98590.50;4955915;29;20046;-75
2023/01/07 04:36:00;;;;;;;1999.90;999.90;;;;;;;4.77;100.00;98587.03;4955991;29;20086;-76
2023/01/07 04:38:25;;;;;;;1999.90;999.90;;;;;;;4.63;100.00;98583.00;4955627;29;20035;-76
2023/01/07 04:40:50;;;;;;;1999.90;999.90;;;;;;;4.60;100.00;98584.31;4956150;29;20053;-77
2023/01/07 04:43:16;;;;;;;1999.90;999.90;;;;;;;4.63;100.00;98577.56;4938747;29;20028;-76
2023/01/07 04:45:41;;;;;;;1999.90;999.90;;;;;;;4.66;100.00;98582.50;4955534;29;20078;-75
2023/01/07 04:48:06;;;;;;;1999.90;999.90;;;;;;;4.62;100.00;98571.31;4955481;29;20038;-77
2023/01/07 04:50:32;;;;;;;1999.90;999.90;;;;;;;4.66;100.00;98585.22;4955131;29;20052;-76
2023/01/07 04:52:57;;;;;;;1999.90;999.90;;;;;;;4.72;100.00;98576.13;4956460;29;20126;-76
2023/01/07 04:55:22;;;;;;;1999.90;999.90;;;;;;;4.76;100.00;98583.50;4955416;29;20082;-77
2023/01/07 04:57:47;;;;;;;1999.90;999.90;;;;;;;4.71;100.00;98588.84;4955640;29;20031;-76
2023/01/07 05:00:14;;;;;;;1999.90;999.90;;;;;;;4.80;100.00;98581.97;4955125;29;20046;-78
2023/01/07 05:02:39;;;;;;;1999.90;999.90;;;;;;;4.85;100.00;98579.31;4955657;29;20085;-80
2023/01/07 05:05:05;;;;;;;1999.90;999.90;;;;;;;4.84;100.00;98579.59;4955768;29;20039;-82
2023/01/07 05:07:30;;;;;;;1999.90;999.90;;;;;;;4.89;100.00;98581.59;4955490;29;20514;-78
2023/01/07 05:09:56;;;;;;;1999.90;999.90;;;;;;;4.73;100.00;98569.63;4955622;29;20027;-79
2023/01/07 05:12:21;;;;;;;1999.90;999.90;;;;;;;4.70;100.00;98580.94;4955722;29;20046;-78
2023/01/07 05:14:46;;;;;;;1999.90;999.90;;;;;;;4.80;100.00;98581.13;4955273;29;20027;-76
2023/01/07 05:17:12;;;;;;;1999.90;999.90;;;;;;;4.84;100.00;98579.59;4955799;29;20163;-80
2023/01/07 05:19:37;;;;;;;1999.90;999.90;;;;;;;4.74;100.00;98576.69;4938053;29;20035;-78
2023/01/07 05:22:03;;;;;;;1999.90;999.90;;;;;;;4.79;100.00;98569.47;4955666;28;20028;-77
2023/01/07 05:24:29;;;;;;;1999.90;999.90;;;;;;;4.82;100.00;98579.03;4954432;29;20480;-77
2023/01/07 05:26:54;;;;;;;1999.90;999.90;;;;;;;4.78;100.00;98583.28;4955334;29;20024;-76
2023/01/07 05:29:19;;;;;;;1999.90;999.90;;;;;;;4.79;100.00;98587.63;4955225;29;20035;-77
2023/01/07 05:31:45;;;;;;;1999.90;999.90;;;;;;;4.79;100.00;98579.50;4954950;29;20023;-76
2023/01/07 05:34:10;;;;;;;1999.90;999.90;;;;;;;4.96;100.00;98583.06;4954879;29;20031;-79
2023/01/07 05:36:35;;;;;;;1999.90;999.90;;;;;;;5.05;100.00;98581.59;4954964;29;20042;-78
2023/01/07 05:39:01;;;;;;;1999.90;999.90;;;;;;;4.98;100.00;98583.63;4954551;29;20082;-76
2023/01/07 05:41:26;;;;;;;1999.90;999.90;;;;;;;4.90;100.00;98583.22;4955130;29;20027;-77
2023/01/07 05:43:51;;;;;;;1999.90;999.90;;;;;;;4.96;100.00;98583.06;4954861;29;20012;-78
2023/01/07 05:46:17;;;;;;;1999.90;999.90;;;;;;;5.04;100.00;98587.28;4954781;29;20023;-77
2023/01/07 05:48:42;;;;;;;1999.90;999.90;;;;;;;5.12;100.00;98584.97;4954955;29;20034;-81
2023/01/07 05:51:07;;;;;;;1999.90;999.90;;;;;;;5.03;100.00;98578.31;4954633;29;20053;-77
2023/01/07 05:53:33;;;;;;;1999.90;999.90;;;;;;;5.09;100.00;98585.47;4955323;29;20038;-82
2023/01/07 05:55:59;;;;;;;1999.90;999.90;;;;;;;5.16;100.00;98586.13;4955853;29;20035;-78
2023/01/07 05:58:26;;;;;;;1999.90;999.90;;;;;;;5.14;100.00;98585.53;4954617;29;20020;-79
2023/01/07 06:00:51;;;;;;;1999.90;999.90;;;;;;;5.14;100.00;98582.84;4954765;29;20633;-76
2023/01/07 06:03:17;;;;;;;1999.90;999.90;;;;;;;5.17;100.00;98576.13;4954625;29;20015;-79
2023/01/07 06:05:43;;;;;;;1999.90;999.90;;;;;;;5.25;100.00;98587.38;4956314;29;20027;-76
2023/01/07 06:08:08;;;;;;;1999.90;999.90;;;;;;;5.19;100.00;98588.38;4958068;29;20144;-77
2023/01/07 06:10:34;;;;;;;1999.90;999.90;;;;;;;5.11;100.00;98586.03;4954717;29;20031;-75
2023/01/07 06:13:00;;;;;;;1999.90;999.90;;;;;;;5.12;100.00;98584.97;4954782;29;20032;-76
2023/01/07 06:15:26;;;;;;;1999.90;999.90;;;;;;;5.18;100.00;98583.16;4957074;29;20015;-79
2023/01/07 06:17:52;;;;;;;1999.90;999.90;;;;;;;5.20;100.00;98581.84;4957594;29;20035;-78
2023/01/07 06:20:17;;;;;;;1999.90;999.90;;;;;;;5.19;100.00;98585.66;4954181;29;20039;-76
2023/01/07 06:22:43;;;;;;;1999.90;999.90;;;;;;;5.22;100.00;98584.34;4953927;29;20034;-78
2023/01/07 06:25:10;;;;;;;1999.90;999.90;;;;;;;5.28;100.00;98586.06;4953893;29;20396;-78
2023/01/07 06:27:35;;;;;;;1999.90;999.90;;;;;;;5.24;100.00;98591.16;4954157;29;20558;-76
2023/01/07 06:30:01;;;;;;;1999.90;999.90;;;;;;;5.34;100.00;98587.78;4953839;29;20118;-79
2023/01/07 06:32:26;;;;;;;1999.90;999.90;;;;;;;5.32;100.00;98589.94;4936755;29;20058;-76
2023/01/07 06:34:51;;;;;;;1999.90;999.90;;;;;;;5.42;100.00;98590.06;4953285;28;20023;-78
2023/01/07 06:37:17;;;;;;;1999.90;999.90;;;;;;;5.39;100.00;98590.56;4953725;29;20035;-77
2023/01/07 06:39:42;;;;;;;1999.90;999.90;;;;;;;5.46;100.00;98579.56;4953565;29;20062;-80
2023/01/07 06:42:08;;;;;;;1999.90;999.90;;;;;;;5.42;100.00;98586.56;4954300;29;20061;-76
2023/01/07 06:44:33;;;;;;;1999.90;999.90;;;;;;;5.38;100.00;98584.34;4954168;29;20031;-79
2023/01/07 06:46:58;;;;;;;1999.90;999.90;;;;;;;5.29;100.00;98585.81;4953793;29;20023;-78
2023/01/07 06:49:24;;;;;;;1999.90;999.90;;;;;;;5.27;100.00;98584.41;4953786;29;20122;-77
2023/01/07 06:51:49;;;;;;;1999.90;999.90;;;;;;;5.34;100.00;98596.75;4953707;29;20481;-77
2023/01/07 06:54:14;;;;;;;1999.90;999.90;;;;;;;5.48;100.00;98594.53;4953320;29;20134;-77
2023/01/07 06:56:39;;;;;;;1999.90;999.90;;;;;;;5.52;100.00;98592.13;4953838;29;20031;-76
2023/01/07 06:59:05;;;;;;;1999.90;999.90;;;;;;;5.48;100.00;98605.41;4953271;29;20547;-78
2023/01/07 07:01:30;;;;;;;1999.90;999.90;;;;;;;5.49;100.00;98598.88;4953397;29;20027;-76
2023/01/07 07:03:55;;;;;;;1999.90;999.90;;;;;;;5.34;100.00;98610.31;4949615;29;20058;-77
2023/01/07 07:06:21;;;;;;;1999.90;999.90;;;;;;;5.18;100.00;98583.16;4937146;29;20115;-77
2023/01/07 07:08:46;;;;;;;1999.90;999.90;;;;;;;5.18;100.00;98607.56;4935099;29;20496;-80
2023/01/07 07:11:11;;;;;;;1999.90;999.90;;;;;;;5.23;100.00;98608.47;4937419;29;20473;-78
2023/01/07 07:13:36;;;;;;;1999.90;999.90;;;;;;;5.36;100.00;98601.91;4936577;29;20096;-77
2023/01/07 07:16:02;;;;;;;1999.90;999.90;;;;;;;5.35;100.00;98603.84;4934102;29;20115;-75
2023/01/07 07:18:27;;;;;;;1999.90;999.90;;;;;;;5.42;100.00;98597.41;4933861;29;20062;-77
2023/01/07 07:20:53;;;;;;;1999.90;999.90;;;;;;;5.45;100.00;98599.63;4935991;29;20059;-76
2023/01/07 07:23:18;;;;;;;1999.90;999.90;;;;;;;5.31;100.00;98599.94;4952500;29;20046;-75
2023/01/07 07:25:43;;;;;;;1999.90;999.90;;;;;;;5.33;100.00;98599.69;4952576;29;20094;-77
2023/01/07 07:28:09;;;;;;;1999.90;999.90;;;;;;;5.47;100.00;98602.91;4952416;29;20061;-77
2023/01/07 07:30:36;;;;;;;1999.90;999.90;;;;;;;5.40;100.00;98598.47;4952442;29;20472;-77
2023/01/07 07:33:02;;;;;;;1999.90;999.90;;;;;;;5.45;100.00;98605.06;4952429;28;20130;-77
2023/01/07 07:35:28;;;;;;;1999.90;999.90;;;;;;;5.50;100.00;98610.56;4952641;28;20106;-75
2023/01/07 07:37:53;;;;;;;1999.90;999.90;;;;;;;5.44;100.00;98604.22;4952875;29;20114;-77
2023/01/07 07:40:19;;;;;;;1999.90;999.90;;;;;;;5.46;100.00;98603.97;4953497;29;20036;-79
2023/01/07 07:42:44;;;;;;;1999.90;999.90;;;;;;;5.41;100.00;98610.16;4954440;28;20027;-79
2023/01/07 07:45:10;;;;;;;1999.90;999.90;;;;;;;5.47;100.00;98603.75;4959081;28;20023;-80
2023/01/07 07:47:36;;;;;;;1999.90;999.90;;;;;;;5.37;100.00;98601.69;4953266;29;20031;-81
2023/01/07 07:50:02;;;;;;;1999.90;999.90;;;;;;;5.51;100.00;98601.38;4955753;28;20015;-84
2023/01/07 07:52:27;;;;;;;1999.90;999.90;;;;;;;5.50;100.00;98600.53;4955274;28;20031;-78
2023/01/07 07:54:52;;;;;;;1999.90;999.90;;;;;;;5.56;100.00;98609.56;4956118;28;20395;-76
2023/01/07 07:57:17;;;;;;;1999.90;999.90;;;;;;;5.59;100.00;98606.38;4955939;29;20383;-79
2023/01/07 07:59:43;;;;;;;1999.90;999.90;;;;;;;5.52;100.00;98603.81;4954126;28;20043;-76
2023/01/07 08:02:12;;;;;;;1999.90;999.90;;;;;;;5.57;100.00;98606.63;4954990;28;20042;-76
2023/01/07 08:04:37;;;;;;;1999.90;999.90;;;;;;;5.55;100.00;98607.91;4953971;28;20015;-78
2023/01/07 08:07:03;;;;;;;1999.90;999.90;;;;;;;5.55;100.00;98597.06;4954008;29;20098;-83
2023/01/07 08:09:28;;;;;;;1999.90;999.90;;;;;;;5.67;100.00;98600.53;4954324;28;20038;-78
2023/01/07 08:11:54;;;;;;;1999.90;999.90;;;;;;;5.68;100.00;98608.41;4953613;28;20035;-82
2023/01/07 08:14:20;;;;;;;1999.90;999.90;;;;;;;5.67;100.00;98597.81;4954983;28;20083;-83
2023/01/07 08:16:45;;;;;;;1999.90;999.90;;;;;;;5.66;100.00;98596.16;4955703;28;20086;-80
2023/01/07 08:19:10;;;;;;;1999.90;999.90;;;;;;;5.59;100.00;98606.38;4956166;29;20039;-81
2023/01/07 08:21:36;;;;;;;1999.90;999.90;;;;;;;5.69;100.00;98609.25;4960030;28;20031;-78
2023/01/07 08:24:01;;;;;;;1999.90;999.90;;;;;;;5.65;100.00;98602.66;4958694;28;20031;-77
2023/01/07 08:26:27;;;;;;;1999.90;999.90;;;;;;;5.38;100.00;98602.50;4959467;28;20028;-77
2023/01/07 08:28:53;;;;;;;1999.90;999.90;;;;;;;5.40;100.00;98587.63;4956076;29;20031;-78
2023/01/07 08:31:18;;;;;;;1999.90;999.90;;;;;;;5.54;100.00;98603.59;4954993;28;20074;-79
2023/01/07 08:33:44;;;;;;;1999.90;999.90;;;;;;;5.58;100.00;98599.28;4954522;28;20031;-75
2023/01/07 08:36:09;;;;;;;1999.90;999.90;;;;;;;5.61;100.00;98599.63;4953115;28;20038;-77
2023/01/07 08:38:35;;;;;;;1999.90;999.90;;;;;;;5.60;100.00;98600.72;4953660;28;20062;-79
2023/01/07 08:41:00;;;;;;;1999.90;999.90;;;;;;;5.50;100.00;98595.13;4953975;28;20027;-82
2023/01/07 08:43:26;;;;;;;1999.90;999.90;;;;;;;5.54;100.00;98604.41;4958063;28;20110;-85
2023/01/07 08:45:52;;;;;;;1999.90;999.90;;;;;;;5.59;100.00;98595.50;4957163;29;20023;-82
2023/01/07 08:48:17;;;;;;;1999.90;999.90;;;;;;;5.57;100.00;98597.66;4953803;28;20110;-84
2023/01/07 08:50:43;;;;;;;1999.90;999.90;;;;;;;5.54;100.00;98598.16;4953130;28;20456;-78
2023/01/07 08:53:08;;;;;;;1999.90;999.90;;;;;;;5.60;100.00;98600.72;4953253;29;20492;-82
2023/01/07 08:55:34;;;;;;;1999.90;999.90;;;;;;;5.63;100.00;98600.22;4953612;28;20050;-79
2023/01/07 08:57:59;;;;;;;1999.90;999.90;;;;;;;5.64;100.00;98593.69;4955024;28;20114;-80
2023/01/07 09:00:24;;;;;;;1999.90;999.90;;;;;;;5.71;100.00;98598.94;4961180;29;20035;-86
2023/01/07 09:02:50;;;;;;;1999.90;999.90;;;;;;;5.67;100.00;98597.81;4966056;28;20042;-85
2023/01/07 09:05:15;;;;;;;1999.90;999.90;;;;;;;5.81;100.00;98599.13;4955205;29;20015;-79
2023/01/07 09:07:41;;;;;;;1999.90;999.90;;;;;;;5.78;100.00;98584.16;4955020;29;20027;-77
2023/01/07 09:10:07;;;;;;;1999.90;999.90;;;;;;;5.78;100.00;98600.44;4955150;29;20118;-80
2023/01/07 09:12:33;;;;;;;1999.90;999.90;;;;;;;5.83;100.00;98607.81;4938153;29;20070;-76
2023/01/07 09:14:58;;;;;;;1999.90;999.90;;;;;;;5.99;100.00;98606.19;4955001;29;20476;-77
2023/01/07 09:17:23;;;;;;;1999.90;999.90;;;;;;;6.21;100.00;98607.88;4955136;29;20027;-77
2023/01/07 09:19:49;;;;;;;1999.90;999.90;;;;;;;6.01;100.00;98604.88;4954723;29;20085;-79
2023/01/07 09:22:14;;;;;;;1999.90;999.90;;;;;;;6.09;100.00;98609.88;4954963;29;20030;-80
2023/01/07 09:24:39;;;;;;;1999.90;999.90;;;;;;;6.00;100.00;98608.66;4937644;29;20027;-78
2023/01/07 09:27:05;;;;;;;1999.90;999.90;;;;;;;6.14;100.00;98609.13;4955077;29;20019;-77
2023/01/07 09:29:30;;;;;;;1999.90;999.90;;;;;;;6.05;100.00;98600.56;4955128;29;20031;-80
2023/01/07 09:31:55;;;;;;;1999.90;999.90;;;;;;;5.92;100.00;98598.22;4954468;29;20035;-79
2023/01/07 09:34:21;;;;;;;1999.90;999.90;;;;;;;6.07;100.00;98606.59;4954881;29;20054;-80
2023/01/07 09:36:46;;;;;;;1999.90;999.90;;;;;;;6.09;100.00;98600.91;4954891;29;20042;-81
2023/01/07 09:39:12;;;;;;;1999.90;999.90;;;;;;;6.16;100.00;98606.97;4955563;29;20045;-77
2023/01/07 09:41:46;;;;;;;1999.90;999.90;;;;;;;6.14;100.00;98592.84;4956479;29;20575;-77
2023/01/07 09:44:17;;;;;;;1999.90;999.90;;;;;;;6.27;100.00;98598.72;4958130;29;20023;-77
2023/01/07 09:46:44;;;;;;;1999.90;999.90;;;;;;;6.04;100.00;98592.69;4955373;29;20027;-76
2023/01/07 09:49:17;;;;;;;1999.90;999.90;;;;;;;6.09;100.00;98590.88;4955335;29;20464;-77
2023/01/07 09:51:47;;;;;;;1999.90;999.90;;;;;;;6.24;100.00;98593.78;4954859;29;20110;-78
2023/01/07 09:54:44;;;;;;;1999.90;999.90;;;;;;;6.36;100.00;98586.31;4954671;29;20023;-79
2023/01/07 09:57:16;;;;;;;1999.90;999.90;;;;;;;6.37;100.00;98587.16;4939581;29;20544;-79
2023/01/07 09:59:42;;;;;;;1999.90;999.90;;;;;;;6.34;100.00;98576.78;4954297;29;20042;-79
2023/01/07 10:02:20;;;;;;;1999.90;999.90;;;;;;;6.84;100.00;98571.94;4937459;29;20035;-81
2023/01/07 10:04:49;;;;;;;1999.90;999.90;;;;;;;6.85;100.00;98576.31;4954661;29;20034;-78
2023/01/07 10:07:26;;;;;;;1999.90;999.90;;;;;;;6.74;100.00;98576.44;4954805;29;20559;-80
2023/01/07 10:10:32;;;;;;;1999.90;999.90;;;;;;;6.94;100.00;98566.63;4953609;28;20031;-78
2023/01/07 10:13:26;;;;;;;1999.90;999.90;;;;;;;7.22;100.00;98568.25;4954862;29;20141;-77
2023/01/07 10:16:16;;;;;;;1999.90;999.90;;;;;;;7.16;100.00;98558.41;4946902;29;20488;-80
2023/01/07 10:19:02;;;;;;;1999.90;999.90;;;;;;;7.20;100.00;98554.09;4954112;29;20036;-77
2023/01/07 10:21:49;;;;;;;1999.90;999.90;;;;;;;7.23;100.00;98558.19;4954471;29;20023;-81
2023/01/07 10:24:27;;;;;;;1999.90;999.90;;;;;;;7.43;100.00;98552.91;4954466;29;20042;-76
2023/01/07 10:26:56;;;;;;;1999.90;999.90;;;;;;;7.32;100.00;98551.19;4954821;29;20123;-81
2023/01/07 10:29:28;;;;;;;1999.90;999.90;;;;;;;7.31;100.00;98550.34;4938918;29;20040;-77
2023/01/07 10:31:58;;;;;;;1999.90;999.90;;;;;;;7.36;100.00;98544.94;4957817;29;20050;-82
2023/01/07 10:34:30;;;;;;;1999.90;999.90;;;;;;;7.41;100.00;98545.00;4940170;29;20436;-77
2023/01/07 10:37:01;;;;;;;1999.90;999.90;;;;;;;7.54;100.00;98538.28;4954680;29;20055;-77
2023/01/07 10:40:03;;;;;;;1999.90;999.90;;;;;;;7.46;100.00;98536.88;4954221;29;20031;-81
2023/01/07 10:42:36;;;;;;;1999.90;999.90;;;;;;;7.45;100.00;98524.38;4954309;29;20027;-77
2023/01/07 10:45:23;;;;;;;1999.90;999.90;;;;;;;7.52;100.00;98524.94;4954185;29;20031;-81
2023/01/07 10:48:10;;;;;;;1999.90;999.90;;;;;;;7.35;100.00;98507.94;4954183;29;20043;-80
2023/01/07 10:50:38;;;;;;;1999.90;999.90;;;;;;;7.38;100.00;98512.88;4954043;29;20043;-81
2023/01/07 10:53:22;;;;;;;1999.90;999.90;;;;;;;7.48;100.00;98506.69;4954464;29;20374;-79
2023/01/07 10:55:56;;;;;;;1999.90;999.90;;;;;;;7.44;100.00;98502.84;4954148;29;20027;-81
2023/01/07 10:58:21;;;;;;;1999.90;999.90;;;;;;;7.52;100.00;98505.88;4938566;29;20039;-83
2023/01/07 11:00:47;;;;;;;1999.90;999.90;;;;;;;7.58;100.00;98500.50;4953845;29;20027;-82
2023/01/07 11:03:22;;;;;;;1999.90;999.90;;;;;;;7.75;100.00;98503.84;4936678;29;20039;-76
2023/01/07 11:05:53;;;;;;;1999.90;999.90;;;;;;;7.77;100.00;98502.50;4947980;28;20067;-77
2023/01/07 11:08:35;;;;;;;1999.90;999.90;;;;;;;7.86;100.00;98497.38;4952801;29;20031;-78